< Typhoon 198623 1986 Season Typhoon 198625 >
Typhoon 198624 (IDA)
General InformationTrack Information on Google MapsDetailed Wind InformationList of All Images || Disaster Info.ResourceGoogle EarthGE AnimationAtom FeedGeoJSON
Detalied Best Track (Time Zone = UTC)
Year Month Day Hour Lat. Long. Pressure (hPa) Wind (kt) Class Image Chart
1986 11 10 06 5.7 135.3 1004 0 2 Image Chart
1986 11 10 12 6.1 134.3 1002 0 2 Image Chart
1986 11 10 18 6.3 133.5 998 40 3 Image Chart
1986 11 11 00 6.4 132.8 998 40 3 Image Chart
1986 11 11 06 6.6 131.8 998 40 3 Image Chart
1986 11 11 12 7.3 130.7 998 40 3 Image Chart
1986 11 11 18 7.9 129.4 996 40 3 Image Chart
1986 11 12 00 8.7 128.0 992 45 3 Image Chart
1986 11 12 06 9.4 127.3 990 50 4 Image Chart
1986 11 12 12 10.1 126.4 990 50 4 Image Chart
1986 11 12 18 10.8 125.1 994 45 3 Image Chart
1986 11 13 00 11.7 123.7 994 45 3 Image Chart
1986 11 13 06 12.5 121.8 996 40 3 Image Chart
1986 11 13 12 12.9 120.2 996 40 3 Image Chart
1986 11 13 18 13.4 119.0 996 40 3 Image Chart
1986 11 14 00 13.9 118.2 996 45 3 Image Chart
1986 11 14 06 14.5 117.2 996 45 3 Image Chart
1986 11 14 12 15.5 116.2 996 45 3 Image Chart
1986 11 14 18 16.6 115.1 992 45 3 Image Chart
1986 11 15 00 17.7 114.3 985 50 4 Image Chart
1986 11 15 06 18.2 114.2 985 50 4 Image Chart
1986 11 15 12 18.6 114.3 990 50 4 Image Chart
1986 11 15 18 19.0 114.5 992 45 3 Image Chart
1986 11 16 00 19.4 114.8 996 40 3 Image Chart
1986 11 16 06 19.5 115.5 998 45 3 Image Chart
1986 11 16 12 19.1 115.8 1000 45 3 Image Chart
1986 11 16 18 18.6 116.0 1004 0 2 Image Chart
1986 11 17 00 18.2 116.2 1006 0 2 Image Chart
1986 11 17 06 17.4 116.3 1006 0 2 Image Chart
1986 11 17 12 16.6 116.4 1008 0 2 Image Chart
1986 11 17 18 15.8 116.5 1008 0 2 Image Chart
1986 11 18 00 15.0 115.5 1008 0 2 Image Chart
1986 11 18 06 15.0 114.5 1008 0 2 Image Chart
Japan Meteorological Agency Best Track Data | Correction Date : 1992-10-21
< Typhoon 198623 1986 Season Typhoon 198625 >

Help